createdAt,value
2018-07-24T00:00:39.757Z,96.10
2018-07-24T00:03:15.199Z,96.00
2018-07-24T00:05:50.138Z,96.00
2018-07-24T00:08:25.130Z,96.00
2018-07-24T00:11:00.087Z,96.10
2018-07-24T00:13:35.499Z,96.10
2018-07-24T00:16:10.513Z,96.00
2018-07-24T00:18:45.592Z,96.10
2018-07-24T00:21:20.440Z,96.10
2018-07-24T00:26:34.789Z,96.20
2018-07-24T00:29:10.389Z,96.40
2018-07-24T00:31:48.326Z,96.60
2018-07-24T00:34:23.352Z,96.70
2018-07-24T00:36:58.711Z,96.90
2018-07-24T00:39:33.579Z,97.00
2018-07-24T00:42:09.393Z,97.20
2018-07-24T00:44:44.531Z,97.70
2018-07-24T00:47:19.438Z,97.50
2018-07-24T00:49:54.221Z,97.50
2018-07-24T00:52:29.666Z,97.50
2018-07-24T00:55:05.108Z,97.60
2018-07-24T00:57:39.938Z,97.60
2018-07-24T01:00:14.997Z,98.00
2018-07-24T01:02:50.411Z,98.30
2018-07-24T01:05:25.229Z,98.40
2018-07-24T01:08:00.127Z,98.50
2018-07-24T01:10:35.226Z,98.60
2018-07-24T01:13:10.475Z,98.80
2018-07-24T01:15:45.436Z,99.00
2018-07-24T01:18:20.290Z,99.10
2018-07-24T01:20:55.254Z,99.10
2018-07-24T01:23:30.193Z,99.40
2018-07-24T01:26:05.389Z,99.50
2018-07-24T01:28:40.138Z,99.60
2018-07-24T01:31:15.454Z,99.80
2018-07-24T01:33:50.644Z,99.90
2018-07-24T01:36:25.645Z,99.90
2018-07-24T01:39:01.204Z,99.90
2018-07-24T01:41:36.395Z,99.90
2018-07-24T01:44:11.329Z,99.90
2018-07-24T01:46:46.243Z,99.90
2018-07-24T01:49:26.455Z,99.90
2018-07-24T01:52:01.668Z,99.90
2018-07-24T01:54:36.584Z,99.90
2018-07-24T01:57:11.714Z,99.90
2018-07-24T01:59:46.778Z,99.90
2018-07-24T02:02:21.658Z,99.90
2018-07-24T02:04:57.156Z,99.90
2018-07-24T02:07:32.116Z,99.90
2018-07-24T02:10:07.948Z,99.90
2018-07-24T02:12:42.847Z,99.90
2018-07-24T02:15:17.857Z,99.90
2018-07-24T02:17:52.565Z,99.90
2018-07-24T02:20:28.123Z,99.90
2018-07-24T02:23:03.330Z,99.90
2018-07-24T02:25:38.186Z,99.90
2018-07-24T02:28:13.015Z,99.90
2018-07-24T02:30:48.258Z,99.90
2018-07-24T02:33:23.350Z,99.90
2018-07-24T02:36:02.379Z,99.90
2018-07-24T02:38:37.790Z,99.90
2018-07-24T02:41:12.833Z,99.90
2018-07-24T02:43:47.835Z,99.90
2018-07-24T02:46:22.656Z,99.90
2018-07-24T02:48:57.984Z,99.90
2018-07-24T02:51:33.090Z,99.90
2018-07-24T02:54:07.952Z,99.90
2018-07-24T02:56:43.070Z,99.90
2018-07-24T02:59:18.363Z,99.90
2018-07-24T03:01:53.715Z,99.90
2018-07-24T03:04:28.526Z,99.90
2018-07-24T03:07:03.767Z,99.90
2018-07-24T03:09:39.408Z,99.90
2018-07-24T03:12:14.335Z,99.90
2018-07-24T03:14:49.395Z,99.90
2018-07-24T03:17:24.808Z,99.90
2018-07-24T03:19:59.851Z,99.90
2018-07-24T03:22:35.098Z,99.90
2018-07-24T03:25:09.945Z,99.90
2018-07-24T03:27:45.011Z,99.90
2018-07-24T03:30:19.913Z,99.90
2018-07-24T03:32:55.514Z,99.90
2018-07-24T03:35:31.068Z,99.90
2018-07-24T03:38:06.636Z,99.90
2018-07-24T03:40:42.050Z,99.90
2018-07-24T03:43:17.237Z,99.90
2018-07-24T03:45:52.082Z,99.90
2018-07-24T03:51:02.622Z,99.90
2018-07-24T03:53:37.595Z,99.90
2018-07-24T03:56:13.137Z,99.90
2018-07-24T03:58:48.229Z,99.90
2018-07-24T04:03:57.635Z,99.90
2018-07-24T04:06:32.559Z,99.90
2018-07-24T04:09:09.314Z,99.90
2018-07-24T04:11:49.703Z,99.90
2018-07-24T04:14:24.772Z,99.90
2018-07-24T04:16:59.565Z,99.90
2018-07-24T04:19:34.587Z,99.90
2018-07-24T04:22:09.676Z,99.90
2018-07-24T04:24:44.672Z,99.90
2018-07-24T04:27:19.950Z,99.90
2018-07-24T04:29:55.448Z,99.90
2018-07-24T04:32:30.523Z,99.90
2018-07-24T04:35:06.284Z,99.90
2018-07-24T04:37:41.383Z,99.90
2018-07-24T04:40:16.833Z,99.90
2018-07-24T04:42:52.345Z,99.90
2018-07-24T04:45:27.588Z,99.90
2018-07-24T04:48:02.714Z,99.90
2018-07-24T04:50:38.305Z,99.90
2018-07-24T04:53:13.514Z,99.90
2018-07-24T04:55:48.712Z,99.90
2018-07-24T04:58:23.838Z,99.90
2018-07-24T05:00:59.248Z,99.90
2018-07-24T05:03:34.279Z,99.90
2018-07-24T05:06:09.694Z,99.90
2018-07-24T05:08:44.848Z,99.90
2018-07-24T05:11:20.382Z,99.90
2018-07-24T05:13:55.459Z,99.90
2018-07-24T05:16:30.459Z,99.90
2018-07-24T05:19:06.127Z,99.90
2018-07-24T05:21:41.644Z,99.90
2018-07-24T05:24:16.574Z,99.90
2018-07-24T05:26:51.515Z,99.90
2018-07-24T05:29:26.940Z,99.90
2018-07-24T05:32:01.696Z,99.90
2018-07-24T05:34:37.153Z,99.90
2018-07-24T05:37:12.254Z,99.90
2018-07-24T05:39:47.340Z,99.90
2018-07-24T05:42:22.641Z,99.90
2018-07-24T05:44:57.491Z,99.90
2018-07-24T05:47:32.651Z,99.90
2018-07-24T05:50:07.996Z,99.90
2018-07-24T05:52:42.914Z,99.90
2018-07-24T05:55:18.039Z,99.90
2018-07-24T05:57:53.206Z,99.90
2018-07-24T06:00:28.029Z,99.90
2018-07-24T06:03:03.142Z,99.90
2018-07-24T06:05:38.475Z,99.90
2018-07-24T06:08:13.309Z,99.90
2018-07-24T06:10:48.411Z,99.90
2018-07-24T06:13:23.605Z,99.90
2018-07-24T06:16:04.519Z,99.90
2018-07-24T06:18:39.585Z,99.90
2018-07-24T06:21:14.942Z,99.90
2018-07-24T06:23:50.581Z,99.90
2018-07-24T06:26:29.829Z,99.90
2018-07-24T06:29:04.959Z,99.90
2018-07-24T06:31:39.939Z,99.90
2018-07-24T06:34:15.435Z,99.90
2018-07-24T06:36:50.442Z,99.90
2018-07-24T06:39:25.642Z,99.90
2018-07-24T06:42:00.637Z,99.90
2018-07-24T06:44:35.535Z,99.90
2018-07-24T06:47:12.011Z,99.90
2018-07-24T06:49:47.105Z,99.90
2018-07-24T06:52:22.682Z,99.90
2018-07-24T06:54:57.891Z,99.90
2018-07-24T06:57:36.305Z,99.90
2018-07-24T07:00:11.497Z,99.90
2018-07-24T07:02:47.543Z,99.90
2018-07-24T07:05:22.436Z,99.90
2018-07-24T07:07:57.712Z,99.90
2018-07-24T07:10:32.738Z,99.90
2018-07-24T07:13:08.479Z,99.90
2018-07-24T07:15:43.930Z,99.90
2018-07-24T07:18:18.899Z,99.90
2018-07-24T07:20:54.783Z,99.90
2018-07-24T07:23:29.984Z,99.90
2018-07-24T07:26:05.968Z,99.90
2018-07-24T07:28:41.943Z,99.90
2018-07-24T07:31:18.491Z,99.90
2018-07-24T07:33:53.809Z,99.90
2018-07-24T07:36:28.977Z,99.90
2018-07-24T07:39:06.395Z,99.90
2018-07-24T07:41:41.965Z,99.30
2018-07-24T07:44:17.068Z,98.80
2018-07-24T07:46:52.545Z,98.90
2018-07-24T07:49:29.614Z,98.60
2018-07-24T07:52:04.493Z,98.00
2018-07-24T07:54:39.414Z,98.00
2018-07-24T07:57:14.411Z,98.40
2018-07-24T07:59:49.126Z,98.30
2018-07-24T08:02:24.640Z,97.50
2018-07-24T08:04:59.991Z,97.30
2018-07-24T08:07:34.645Z,97.40
2018-07-24T08:10:10.289Z,96.70
2018-07-24T08:12:45.374Z,95.90
2018-07-24T08:15:20.565Z,95.20
2018-07-24T08:17:55.682Z,95.00
2018-07-24T08:20:31.198Z,94.70
2018-07-24T08:23:07.039Z,94.90
2018-07-24T08:25:42.135Z,93.80
2018-07-24T08:28:17.375Z,93.60
2018-07-24T08:30:52.343Z,92.30
2018-07-24T08:33:27.413Z,91.40
2018-07-24T08:36:02.654Z,90.40
2018-07-24T08:41:12.450Z,89.20
2018-07-24T08:43:47.460Z,87.80
2018-07-24T08:48:57.006Z,86.60
2018-07-24T08:51:32.832Z,87.40
2018-07-24T08:54:08.270Z,84.80
2018-07-24T08:56:43.254Z,85.10
2018-07-24T08:59:18.450Z,85.10
2018-07-24T09:01:53.905Z,83.00
2018-07-24T09:04:29.558Z,82.30
2018-07-24T09:07:04.614Z,80.90
2018-07-24T09:09:39.978Z,80.10
2018-07-24T09:12:15.548Z,78.30
2018-07-24T09:14:50.870Z,77.00
2018-07-24T09:17:25.817Z,77.20
2018-07-24T09:20:00.849Z,76.30
2018-07-24T09:22:36.093Z,75.90
2018-07-24T09:25:11.088Z,75.50
2018-07-24T09:27:46.539Z,75.70
2018-07-24T09:30:21.355Z,73.10
2018-07-24T09:32:56.621Z,72.20
2018-07-24T09:35:31.924Z,71.50
2018-07-24T09:43:33.823Z,70.50
2018-07-24T09:46:08.753Z,70.90
2018-07-24T09:48:43.651Z,70.80
2018-07-24T09:51:18.738Z,70.50
2018-07-24T09:53:53.506Z,68.60
2018-07-24T09:56:28.392Z,67.70
2018-07-24T09:59:04.196Z,67.10
2018-07-24T10:01:39.380Z,67.40
2018-07-24T10:04:14.557Z,65.60
2018-07-24T10:06:49.438Z,66.70
2018-07-24T10:09:24.816Z,66.80
2018-07-24T10:12:00.160Z,66.20
2018-07-24T10:17:10.246Z,64.30
2018-07-24T10:19:45.450Z,63.30
2018-07-24T10:22:20.586Z,63.20
2018-07-24T10:25:00.857Z,62.90
2018-07-24T10:27:36.193Z,63.40
2018-07-24T10:30:11.196Z,62.30
2018-07-24T10:32:46.060Z,61.40
2018-07-24T10:35:21.269Z,60.60
2018-07-24T10:37:56.165Z,59.40
2018-07-24T10:40:31.624Z,59.10
2018-07-24T10:43:07.252Z,59.40
2018-07-24T10:45:42.692Z,59.90
2018-07-24T10:48:17.814Z,60.10
2018-07-24T10:50:52.976Z,59.90
2018-07-24T10:53:28.028Z,59.00
2018-07-24T10:56:03.455Z,58.60
2018-07-24T10:58:38.679Z,58.00
2018-07-24T11:01:13.386Z,57.90
2018-07-24T11:03:48.901Z,57.60
2018-07-24T11:06:24.637Z,57.90
2018-07-24T11:08:59.905Z,56.60
2018-07-24T11:11:34.780Z,56.30
2018-07-24T11:14:10.574Z,56.20
2018-07-24T11:16:45.545Z,56.30
2018-07-24T11:19:20.659Z,56.20
2018-07-24T11:21:55.611Z,55.70
2018-07-24T11:24:31.566Z,55.60
2018-07-24T11:27:06.742Z,55.40
2018-07-24T11:29:41.667Z,55.00
2018-07-24T11:32:17.098Z,53.90
2018-07-24T11:34:52.319Z,54.60
2018-07-24T11:37:27.094Z,54.30
2018-07-24T11:40:02.037Z,54.80
2018-07-24T11:42:36.952Z,54.40
2018-07-24T11:45:12.487Z,53.10
2018-07-24T11:47:47.832Z,53.30
2018-07-24T11:50:23.025Z,53.20
2018-07-24T11:52:58.337Z,53.60
2018-07-24T11:55:33.333Z,53.50
2018-07-24T12:01:07.864Z,52.50
2018-07-24T12:03:43.000Z,52.60
2018-07-24T12:06:18.335Z,52.60
2018-07-24T12:08:53.120Z,52.20
2018-07-24T12:11:29.177Z,51.50
2018-07-24T12:14:05.014Z,51.30
2018-07-24T12:16:39.937Z,51.20
2018-07-24T12:19:15.578Z,51.00
2018-07-24T12:21:50.821Z,51.20
2018-07-24T12:24:27.130Z,50.50
2018-07-24T12:27:02.345Z,50.10
2018-07-24T12:29:38.051Z,48.80
2018-07-24T12:32:13.294Z,49.00
2018-07-24T12:34:49.335Z,49.30
2018-07-24T12:37:25.016Z,49.50
2018-07-24T12:40:00.671Z,49.00
2018-07-24T12:42:36.939Z,49.50
2018-07-24T12:45:12.581Z,49.40
2018-07-24T12:47:48.099Z,49.40
2018-07-24T12:50:23.221Z,49.10
2018-07-24T12:53:03.818Z,48.80
2018-07-24T12:55:39.435Z,48.80
2018-07-24T12:58:14.905Z,48.50
2018-07-24T13:00:50.277Z,48.00
2018-07-24T13:05:59.915Z,47.30
2018-07-24T13:08:35.624Z,47.60
2018-07-24T13:11:11.203Z,47.50
2018-07-24T13:13:46.808Z,47.30
2018-07-24T13:16:22.298Z,47.40
2018-07-24T13:18:57.856Z,47.20
2018-07-24T13:21:33.393Z,46.90
2018-07-24T13:24:08.790Z,47.40
2018-07-24T13:26:43.896Z,47.50
2018-07-24T13:29:19.830Z,47.30
2018-07-24T13:31:55.555Z,47.30
2018-07-24T13:34:30.958Z,46.80
2018-07-24T13:37:07.010Z,46.40
2018-07-24T13:39:42.540Z,46.50
2018-07-24T13:42:17.907Z,46.80
2018-07-24T13:44:53.512Z,46.20
2018-07-24T13:47:29.129Z,46.30
2018-07-24T13:50:04.803Z,47.00
2018-07-24T13:52:40.362Z,46.10
2018-07-24T13:55:16.114Z,45.70
2018-07-24T13:57:51.625Z,45.60
2018-07-24T14:00:27.431Z,45.70
2018-07-24T14:03:03.268Z,44.60
2018-07-24T14:05:38.811Z,45.10
2018-07-24T14:08:14.645Z,45.60
2018-07-24T14:10:50.111Z,44.80
2018-07-24T14:13:25.450Z,44.70
2018-07-24T14:16:01.034Z,44.80
2018-07-24T14:18:36.338Z,45.20
2018-07-24T14:21:11.697Z,45.60
2018-07-24T14:23:48.157Z,44.70
2018-07-24T14:26:23.894Z,45.60
2018-07-24T14:29:00.491Z,45.20
2018-07-24T14:31:35.877Z,45.20
2018-07-24T14:34:11.772Z,44.00
2018-07-24T14:36:47.151Z,44.50
2018-07-24T14:39:23.310Z,44.20
2018-07-24T14:41:58.577Z,44.70
2018-07-24T14:44:34.088Z,44.20
2018-07-24T14:47:10.002Z,43.60
2018-07-24T14:52:20.875Z,42.70
2018-07-24T14:54:56.652Z,43.30
2018-07-24T14:57:32.492Z,43.60
2018-07-24T15:00:07.841Z,43.00
2018-07-24T15:02:44.083Z,43.20
2018-07-24T15:05:19.760Z,42.80
2018-07-24T15:07:55.106Z,42.60
2018-07-24T15:10:30.767Z,42.70
2018-07-24T15:13:06.612Z,42.70
2018-07-24T15:15:42.131Z,42.40
2018-07-24T15:18:16.977Z,42.00
2018-07-24T15:20:51.864Z,41.90
2018-07-24T15:23:27.786Z,41.70
2018-07-24T15:26:03.739Z,41.50
2018-07-24T15:28:39.592Z,41.30
2018-07-24T15:31:15.315Z,41.00
2018-07-24T15:33:50.832Z,41.00
2018-07-24T15:36:26.458Z,41.10
2018-07-24T15:39:01.542Z,41.00
2018-07-24T15:41:36.295Z,40.60
2018-07-24T15:44:11.425Z,40.40
2018-07-24T15:46:47.158Z,41.20
2018-07-24T15:49:23.108Z,40.80
2018-07-24T15:51:58.351Z,41.20
2018-07-24T15:54:33.391Z,40.90
2018-07-24T15:57:09.372Z,40.50
2018-07-24T16:02:19.318Z,42.10
2018-07-24T16:04:54.453Z,48.40
2018-07-24T16:07:29.477Z,48.40
2018-07-24T16:10:06.084Z,46.90
2018-07-24T16:12:41.455Z,46.50
2018-07-24T16:15:17.362Z,46.20
2018-07-24T16:17:53.923Z,42.60
2018-07-24T16:20:29.160Z,42.20
2018-07-24T16:23:04.325Z,42.20
2018-07-24T16:25:39.595Z,41.90
2018-07-24T16:28:14.799Z,41.80
2018-07-24T16:30:50.501Z,41.70
2018-07-24T16:33:25.708Z,42.20
2018-07-24T16:36:01.419Z,41.20
2018-07-24T16:38:37.201Z,41.20
2018-07-24T16:41:12.306Z,41.70
2018-07-24T16:43:48.116Z,40.70
2018-07-24T16:46:23.652Z,40.50
2018-07-24T16:48:58.975Z,41.10
2018-07-24T16:51:33.816Z,41.10
2018-07-24T16:54:09.733Z,41.30
2018-07-24T16:56:44.648Z,42.30
2018-07-24T16:59:20.623Z,41.10
2018-07-24T17:02:02.414Z,40.80
2018-07-24T17:04:37.965Z,41.10
2018-07-24T17:07:13.192Z,41.10
2018-07-24T17:09:48.446Z,40.90
2018-07-24T17:12:23.481Z,40.70
2018-07-24T17:14:58.785Z,40.90
2018-07-24T17:17:34.065Z,40.90
2018-07-24T17:20:08.896Z,40.70
2018-07-24T17:22:43.778Z,40.90
2018-07-24T17:25:18.801Z,41.60
2018-07-24T17:30:28.713Z,40.90
2018-07-24T17:33:04.004Z,41.00
2018-07-24T17:35:39.477Z,40.80
2018-07-24T17:38:15.055Z,40.90
2018-07-24T17:43:24.783Z,41.60
2018-07-24T17:45:59.969Z,41.30
2018-07-24T17:48:35.271Z,42.10
2018-07-24T17:51:10.731Z,42.40
2018-07-24T17:53:46.491Z,42.70
2018-07-24T17:56:22.378Z,42.50
2018-07-24T17:58:58.160Z,42.30
2018-07-24T18:01:34.353Z,42.80
2018-07-24T18:06:45.205Z,43.20
2018-07-24T18:09:21.079Z,43.10
2018-07-24T18:11:56.593Z,42.90
2018-07-24T18:14:32.493Z,43.00
2018-07-24T18:17:07.808Z,43.30
2018-07-24T18:19:43.371Z,43.20
2018-07-24T18:22:19.080Z,43.90
2018-07-24T18:24:55.013Z,44.10
2018-07-24T18:27:30.765Z,44.60
2018-07-24T18:30:07.680Z,44.90
2018-07-24T18:32:43.365Z,44.80
2018-07-24T18:35:19.527Z,44.70
2018-07-24T18:37:55.056Z,45.30
2018-07-24T18:40:31.071Z,45.00
2018-07-24T18:43:07.139Z,45.50
2018-07-24T18:45:43.005Z,46.10
2018-07-24T18:48:18.793Z,45.80
2018-07-24T18:50:54.463Z,46.00
2018-07-24T18:53:30.085Z,46.20
2018-07-24T18:56:06.218Z,46.10
2018-07-24T18:58:42.255Z,46.50
2018-07-24T19:01:17.866Z,46.60
2018-07-24T19:03:52.994Z,46.90
2018-07-24T19:06:28.975Z,46.70
2018-07-24T19:09:04.751Z,46.80
2018-07-24T19:11:40.174Z,46.80
2018-07-24T19:14:15.858Z,46.80
2018-07-24T19:16:50.907Z,47.50
2018-07-24T19:19:25.980Z,47.70
2018-07-24T19:22:01.273Z,48.10
2018-07-24T19:24:36.887Z,47.60
2018-07-24T19:27:11.722Z,47.30
2018-07-24T19:29:46.896Z,48.10
2018-07-24T19:32:22.043Z,48.50
2018-07-24T19:34:57.709Z,48.50
2018-07-24T19:37:32.900Z,48.60
2018-07-24T19:40:08.110Z,48.90
2018-07-24T19:42:43.057Z,49.20
2018-07-24T19:45:23.163Z,49.50
2018-07-24T19:48:01.520Z,49.60
2018-07-24T19:53:11.584Z,50.30
2018-07-24T19:55:51.924Z,50.10
2018-07-24T19:58:26.840Z,50.30
2018-07-24T20:01:01.966Z,50.80
2018-07-24T20:03:37.162Z,50.90
2018-07-24T20:06:12.443Z,51.10
2018-07-24T20:08:47.769Z,51.60
2018-07-24T20:11:22.865Z,51.70
2018-07-24T20:13:58.144Z,52.00
2018-07-24T20:16:33.055Z,52.20
2018-07-24T20:19:08.556Z,51.80
2018-07-24T20:21:43.596Z,52.10
2018-07-24T20:24:18.536Z,51.80
2018-07-24T20:26:54.061Z,51.90
2018-07-24T20:29:29.454Z,52.10
2018-07-24T20:34:40.523Z,52.80
2018-07-24T20:37:15.740Z,52.70
2018-07-24T20:39:51.025Z,52.60
2018-07-24T20:42:26.443Z,52.70
2018-07-24T20:45:01.597Z,52.80
2018-07-24T20:47:37.572Z,53.20
2018-07-24T20:50:12.754Z,53.30
2018-07-24T20:52:47.975Z,53.70
2018-07-24T20:55:23.645Z,54.00
2018-07-24T20:57:58.558Z,54.40
2018-07-24T21:00:33.545Z,54.70
2018-07-24T21:03:08.756Z,55.00
2018-07-24T21:05:43.890Z,54.90
2018-07-24T21:08:19.000Z,54.50
2018-07-24T21:10:53.904Z,54.70
2018-07-24T21:13:29.252Z,55.00
2018-07-24T21:16:04.265Z,55.50
2018-07-24T21:18:39.991Z,55.10
2018-07-24T21:21:16.058Z,55.00
2018-07-24T21:23:51.573Z,55.40
2018-07-24T21:26:27.635Z,55.10
2018-07-24T21:31:37.397Z,55.30
2018-07-24T21:34:13.238Z,55.40
2018-07-24T21:36:48.280Z,55.80
2018-07-24T21:39:23.380Z,56.30
2018-07-24T21:41:58.417Z,56.80
2018-07-24T21:44:33.567Z,57.30
2018-07-24T21:47:09.317Z,57.70
2018-07-24T21:49:44.165Z,58.50
2018-07-24T21:52:26.025Z,58.90
2018-07-24T21:55:01.737Z,59.30
2018-07-24T21:57:36.707Z,59.60
2018-07-24T22:00:12.610Z,60.10
2018-07-24T22:02:48.355Z,61.00
2018-07-24T22:05:23.237Z,61.40
2018-07-24T22:07:58.571Z,62.20
2018-07-24T22:10:33.944Z,62.90
2018-07-24T22:13:08.903Z,64.30
2018-07-24T22:15:44.483Z,64.90
2018-07-24T22:18:22.432Z,65.90
2018-07-24T22:20:57.289Z,66.70
2018-07-24T22:23:32.216Z,67.20
2018-07-24T22:26:07.484Z,68.80
2018-07-24T22:28:42.580Z,68.80
2018-07-24T22:31:17.482Z,70.10
2018-07-24T22:33:52.750Z,70.60
2018-07-24T22:36:28.370Z,71.40
2018-07-24T22:39:04.868Z,72.20
2018-07-24T22:41:40.156Z,72.70
2018-07-24T22:46:50.424Z,74.20
2018-07-24T22:49:25.368Z,74.90
2018-07-24T22:52:00.899Z,75.80
2018-07-24T22:54:36.199Z,76.80
2018-07-24T22:57:11.159Z,77.90
2018-07-24T22:59:46.254Z,79.50
2018-07-24T23:02:21.281Z,80.70
2018-07-24T23:04:56.866Z,81.90
2018-07-24T23:07:32.097Z,83.00
2018-07-24T23:10:07.430Z,83.50
2018-07-24T23:12:42.244Z,84.30
2018-07-24T23:15:17.389Z,85.60
2018-07-24T23:17:52.682Z,86.50
2018-07-24T23:20:28.346Z,87.70
2018-07-24T23:23:03.867Z,88.80
2018-07-24T23:25:38.863Z,89.90
2018-07-24T23:28:13.583Z,90.50
2018-07-24T23:30:48.480Z,91.20
2018-07-24T23:33:24.112Z,91.60
2018-07-24T23:35:59.295Z,92.10
2018-07-24T23:38:34.132Z,92.50
2018-07-24T23:41:10.268Z,93.10
2018-07-24T23:43:45.065Z,93.90
2018-07-24T23:46:20.136Z,94.50
2018-07-24T23:48:55.122Z,95.40
2018-07-24T23:51:30.552Z,96.10
2018-07-24T23:54:05.724Z,96.80
2018-07-24T23:56:40.340Z,97.60
2018-07-24T23:59:15.203Z,98.20
